Godwin, North Carolina
Current Conditions -  °F | °C
As of 8:35 PM on Monday 24 Nov 2014 (Local Time) from KHRJ Reporting Station
Light Rain Light Rain  
Wind Chill: 67°   Ceiling: Unl
Heat Index: 67°   Visibility: 10mi
Dew Point: 60°   Wind: 3mph
Humidity: 80%   Direction: 230°SW
Pressure: 29.85"   Gusts: NA
Location:  35.22°N, 78.68°W
Report Text: KHRJ 250135Z AUTO 23003KT 10SM -RA SCT120 19/16 A2985 RMK AO2 T01930157
Loading
Personal Weather Stations






























Interactive Weather Map New forecast layout! Learn more

10-Day Weather Forecast

Advertisements
Track Severe Weather on mobile